Create Tblcommutelog Verified Points Advance Search
| # | Trip ID | Id Commuter | Trip Date | Trip Num | Current Lat | Current Lng | Delta Distance | Current Time | Activity | Activity Confidence | Current Speed | |
|---|---|---|---|---|---|---|---|---|---|---|---|---|
| 69561 | 251001_780214_16515505_0711 | 780214 | (not set) | (not set) | 39.4031153 | -77.3964313 | 4.2852 | 2025-10-01 07:22:50 | still | 100 | 11.573846415192 | |
| 69562 | 251001_780214_16515505_0711 | 780214 | (not set) | (not set) | 39.4031153 | -77.3964313 | 4.2852 | 2025-10-01 07:22:50 | still | 100 | 11.573846415192 | |
| 69563 | 251001_780214_16515505_0711 | 780214 | (not set) | (not set) | 39.4031153 | -77.3964313 | 4.2852 | 2025-10-01 07:22:50 | still | 100 | 11.573846415192 | |
| 69564 | 251001_784252_16652453_0701 | 784252 | (not set) | (not set) | 39.382665240725 | -77.281307662751 | 12.775 | 2025-10-01 07:22:51 | in_vehicle | 100 | 16.3839888419 | |
| 69565 | 251001_787145_0_0640 | 787145 | (not set) | (not set) | 38.817376245678 | -77.052847650387 | 18.0277 | 2025-10-01 07:22:52 | in_vehicle | 100 | -0.44703925898772 | |
| 69566 | 251001_785147_16514010_0713 | 785147 | (not set) | (not set) | 39.097530440574 | -78.109230642755 | 5.119 | 2025-10-01 07:22:52 | in_vehicle | 100 | 10.509892978801 | |
| 69567 | 251001_772259_16460160_0719 | 772259 | (not set) | (not set) | 39.042765393271 | -77.110964391707 | 0.8773 | 2025-10-01 07:22:52 | in_vehicle | 100 | 7.8902429211333 | |
| 69568 | 251001_772509_16419859_0644 | 772509 | (not set) | (not set) | 38.780464666667 | -76.997268666667 | 14.1515 | 2025-10-01 07:22:53 | in_vehicle | 100 | 5.2661224708754 | |
| 69569 | 251001_785674_6441454_0710 | 785674 | (not set) | (not set) | 39.264476876432 | -77.312168655163 | 9.1694 | 2025-10-01 07:22:53 | in_vehicle | 100 | 11.175981474693 | |
| 69570 | 251001_784923_16478950_0609 | 784923 | (not set) | (not set) | 38.866587646141 | -76.984073737641 | 28.277 | 2025-10-01 07:22:53 | unknown | 100 | 2.8208177242125 | |
| 69571 | 251001_783195_16513328_0721 | 783195 | (not set) | (not set) | 38.9530931 | -76.9717781 | 0.0397 | 2025-10-01 07:22:53 | in_vehicle | 100 | -0.44703925898772 | |
| 69572 | 251001_739141_6438355_0709 | 739141 | (not set) | (not set) | 38.8126334504 | -77.145432569044 | 14.3707 | 2025-10-01 07:22:55 | unknown | 100 | 15.315565012919 | |
| 69573 | 251001_787145_0_0640 | 787145 | (not set) | (not set) | 38.82482536291 | -77.046928442019 | 18.0277 | 2025-10-01 07:22:55 | in_vehicle | 100 | -0.44703925898772 | |
| 69574 | 251001_783315_16506039_0721 | 783315 | (not set) | (not set) | 38.7430116 | -77.2419451 | 0.6152 | 2025-10-01 07:22:59 | still | 100 | 6.9156973365401 | |
| 69575 | 251001_784902_16470430_0718 | 784902 | (not set) | (not set) | 38.893253151576 | -77.084736939339 | 0.1688 | 2025-10-01 07:22:57 | on_foot | 100 | 0.46045043675736 | |
| 69576 | 251001_784902_16470430_0718 | 784902 | (not set) | (not set) | 38.893253151576 | -77.084736939339 | 0 | 2025-10-01 07:22:57 | on_foot | 100 | 0.46045043675736 | |
| 69577 | 251001_785264_6438355_0708 | 785264 | (not set) | (not set) | 38.953093191328 | -77.363969361499 | 3.2675 | 2025-10-01 07:22:58 | in_vehicle | 100 | 7.1526281438036 | |
| 69578 | 251001_780583_16465223_0719 | 780583 | (not set) | (not set) | 38.779819 | -77.0023147 | 1.3508 | 2025-10-01 07:22:57 | in_vehicle | 100 | 4.953194989584 | |
| 69579 | 251001_780583_16465223_0719 | 780583 | (not set) | (not set) | 38.779819 | -77.0023147 | 1.3508 | 2025-10-01 07:22:57 | in_vehicle | 100 | 4.953194989584 | |
| 69580 | 251001_780583_16465223_0719 | 780583 | (not set) | (not set) | 38.779819 | -77.0023147 | 1.3508 | 2025-10-01 07:22:57 | in_vehicle | 100 | 4.953194989584 |